Time;durP1;ratioP1;P1;durP2;ratioP2;P2;SDS_P1;SDS_P2;PMS_P1;PMS_P2;Temp;Humidity;BMP_temperature;BMP_pressure;BME280_temperature;BME280_humidity;BME280_pressure;Samples;Min_cycle;Max_cycle;Signal;HPM_P1;HPM_P2
2021/01/23 00:01:39;;;;;;;50.77;13.97;;;;;;;-1.09;100.00;99046.31;4997086;28;20052;-65
2021/01/23 00:04:04;;;;;;;63.00;13.43;;;;;;;-1.00;100.00;99049.06;4991580;28;20214;-66
2021/01/23 00:06:30;;;;;;;72.20;15.63;;;;;;;-0.91;100.00;99054.41;4992319;28;20091;-66
2021/01/23 00:08:55;;;;;;;71.10;14.50;;;;;;;-0.90;100.00;99051.84;4997936;28;20065;-66
2021/01/23 00:11:21;;;;;;;70.17;13.93;;;;;;;-0.86;100.00;99057.91;5001381;28;20038;-66
2021/01/23 00:13:46;;;;;;;79.33;14.23;;;;;;;-0.89;100.00;99052.72;4996703;28;20033;-66
2021/01/23 00:16:12;;;;;;;74.50;15.30;;;;;;;-0.91;100.00;99059.53;5011359;28;20444;-66
2021/01/23 00:18:37;;;;;;;64.63;15.53;;;;;;;-1.00;100.00;99049.06;4997070;28;20026;-65
2021/01/23 00:21:03;;;;;;;69.47;13.33;;;;;;;-1.06;100.00;99048.97;4999330;28;20042;-66
2021/01/23 00:23:28;;;;;;;89.67;15.33;;;;;;;-1.08;100.00;99040.38;5000585;28;20117;-68
2021/01/23 00:25:53;;;;;;;67.70;14.63;;;;;;;-1.15;100.00;99041.94;5002459;28;20675;-67
2021/01/23 00:28:19;;;;;;;72.37;14.53;;;;;;;-1.14;100.00;99040.22;5003267;28;20117;-66
2021/01/23 00:30:44;;;;;;;67.47;14.73;;;;;;;-1.06;100.00;99033.56;5003036;28;20037;-66
2021/01/23 00:33:10;;;;;;;95.00;16.27;;;;;;;-1.05;100.00;99035.31;5000049;28;20033;-67
2021/01/23 00:35:35;;;;;;;82.57;14.77;;;;;;;-1.08;100.00;99028.41;4997939;28;20564;-67
2021/01/23 00:38:01;;;;;;;62.10;13.53;;;;;;;-1.13;100.00;99032.56;5002215;28;20800;-66
2021/01/23 00:40:26;;;;;;;72.57;14.47;;;;;;;-1.11;100.00;99024.91;4991958;28;20076;-66
2021/01/23 00:42:52;;;;;;;74.10;14.50;;;;;;;-1.04;100.00;99022.50;4994440;28;20030;-67
2021/01/23 00:45:17;;;;;;;80.33;15.20;;;;;;;-1.01;100.00;99024.25;4999043;28;20037;-67
2021/01/23 00:47:43;;;;;;;83.17;16.20;;;;;;;-0.97;100.00;99023.47;4999824;28;20096;-66
2021/01/23 00:50:09;;;;;;;87.07;15.83;;;;;;;-0.91;100.00;99018.50;4998547;28;20061;-66
2021/01/23 00:52:35;;;;;;;88.67;14.83;;;;;;;-0.89;100.00;99011.69;4997443;28;20061;-68
2021/01/23 00:55:01;;;;;;;94.40;17.67;;;;;;;-0.85;100.00;99021.16;4996112;28;20307;-66
2021/01/23 00:57:26;;;;;;;79.23;16.60;;;;;;;-0.84;100.00;99017.78;5005167;28;20644;-67
2021/01/23 00:59:51;;;;;;;86.67;16.03;;;;;;;-0.84;100.00;99020.34;5003872;28;20033;-67
2021/01/23 01:02:17;;;;;;;86.50;15.67;;;;;;;-0.89;100.00;99021.94;5007565;28;20042;-66
2021/01/23 01:04:42;;;;;;;83.83;15.50;;;;;;;-0.92;100.00;99015.06;5006269;28;20117;-68
2021/01/23 01:07:08;;;;;;;87.60;15.23;;;;;;;-0.98;100.00;99026.88;5007656;28;20051;-68
2021/01/23 01:09:33;;;;;;;98.83;15.27;;;;;;;-1.06;100.00;99023.31;5001881;28;20034;-66
2021/01/23 01:11:59;;;;;;;69.00;15.03;;;;;;;-1.12;100.00;99020.59;4998396;28;20084;-67
2021/01/23 01:14:24;;;;;;;72.70;14.83;;;;;;;-1.09;100.00;99028.34;4990210;28;20109;-68
2021/01/23 01:16:50;;;;;;;72.23;14.70;;;;;;;-1.10;100.00;99021.50;4991377;28;20030;-66
2021/01/23 01:19:16;;;;;;;71.47;14.17;;;;;;;-1.07;100.00;99026.72;4997013;28;20114;-67
2021/01/23 01:21:41;;;;;;;84.70;16.07;;;;;;;-1.02;100.00;99030.22;4992199;28;20088;-69
2021/01/23 01:24:07;;;;;;;83.97;15.57;;;;;;;-1.01;100.00;99032.81;4996825;28;20029;-67
2021/01/23 01:26:32;;;;;;;89.47;15.53;;;;;;;-1.17;100.00;99035.06;4996388;28;20018;-68
2021/01/23 01:28:58;;;;;;;78.83;15.23;;;;;;;-1.31;100.00;99030.50;4991091;28;20121;-66
2021/01/23 01:31:23;;;;;;;80.47;15.83;;;;;;;-1.35;100.00;99026.13;5000462;28;20022;-69
2021/01/23 01:33:49;;;;;;;65.77;15.03;;;;;;;-1.38;100.00;99026.06;5000719;28;20026;-68
2021/01/23 01:36:15;;;;;;;83.47;15.20;;;;;;;-1.34;100.00;99032.97;4995783;28;20030;-66
2021/01/23 01:38:40;;;;;;;83.57;15.53;;;;;;;-1.33;100.00;99024.47;4999648;28;20029;-68
2021/01/23 01:41:06;;;;;;;70.20;14.53;;;;;;;-1.46;100.00;99025.00;5001512;28;20278;-66
2021/01/23 01:43:31;;;;;;;77.57;14.47;;;;;;;-1.58;100.00;99029.88;5001352;28;20032;-66
2021/01/23 01:45:57;;;;;;;73.87;14.33;;;;;;;-1.62;100.00;99025.50;5003990;28;20033;-68
2021/01/23 01:48:22;;;;;;;67.60;13.63;;;;;;;-1.57;100.00;99029.94;5002508;28;20021;-67
2021/01/23 01:50:48;;;;;;;83.40;15.33;;;;;;;-1.40;100.00;99040.53;4991845;28;20030;-67
2021/01/23 01:53:13;;;;;;;87.60;16.23;;;;;;;-1.23;100.00;99031.50;4988681;28;20045;-68
2021/01/23 01:55:39;;;;;;;88.73;15.90;;;;;;;-1.03;100.00;99038.75;5011431;28;20036;-66
2021/01/23 01:58:04;;;;;;;89.23;15.90;;;;;;;-0.91;100.00;99032.19;4996665;28;20026;-66
2021/01/23 02:00:30;;;;;;;104.63;16.47;;;;;;;-0.85;100.00;99028.84;5003697;28;20034;-66
2021/01/23 02:03:26;;;;;;;96.47;16.77;;;;;;;-0.80;100.00;99031.53;4994971;28;20045;-68
2021/01/23 02:06:04;;;;;;;106.57;16.90;;;;;;;-0.77;100.00;99031.56;4998540;28;20030;-67
2021/01/23 02:09:10;;;;;;;103.87;16.97;;;;;;;-0.68;100.00;99037.75;4993274;28;20312;-67
2021/01/23 02:12:04;;;;;;;105.90;17.73;;;;;;;-0.59;100.00;99042.22;5002154;28;20281;-65
2021/01/23 02:14:57;;;;;;;107.03;19.67;;;;;;;-0.47;100.00;99047.56;4990946;28;20316;-66
2021/01/23 02:17:33;;;;;;;125.80;18.50;;;;;;;-0.40;100.00;99043.41;4992672;28;20300;-65
2021/01/23 02:20:36;;;;;;;125.87;18.30;;;;;;;-0.36;100.00;99050.34;4994246;28;20026;-64
2021/01/23 02:23:13;;;;;;;118.22;19.15;;;;;;;-0.32;100.00;99052.13;4994287;28;20850;-65
2021/01/23 02:25:53;;;;;;;105.83;18.37;;;;;;;-0.27;100.00;99054.75;5009186;28;20042;-65
2021/01/23 02:28:23;;;;;;;99.63;16.70;;;;;;;-0.32;100.00;99046.97;4990458;28;20293;-65
2021/01/23 02:31:07;;;;;;;113.50;18.30;;;;;;;-0.38;100.00;99052.00;5000952;28;20320;-66
2021/01/23 02:33:38;;;;;;;115.47;17.90;;;;;;;-0.37;100.00;99053.72;5005799;28;20284;-65
2021/01/23 02:36:05;;;;;;;96.60;19.43;;;;;;;-0.45;100.00;99056.16;4997138;28;20699;-65
2021/01/23 02:38:32;;;;;;;108.73;18.80;;;;;;;-0.53;100.00;99060.28;4995454;28;20292;-66
2021/01/23 02:40:59;;;;;;;98.73;18.47;;;;;;;-0.55;100.00;99055.97;5002009;28;20637;-65
2021/01/23 02:43:24;;;;;;;105.27;17.90;;;;;;;-0.61;100.00;99055.03;5002077;28;20343;-65
2021/01/23 02:45:50;;;;;;;112.03;17.07;;;;;;;-0.62;100.00;99062.66;4996521;28;20301;-65
2021/01/23 02:48:17;;;;;;;102.87;17.30;;;;;;;-0.56;100.00;99056.78;5003216;28;20046;-65
2021/01/23 02:50:44;;;;;;;130.40;19.07;;;;;;;-0.47;100.00;99056.97;5000750;28;20058;-65
2021/01/23 02:53:21;;;;;;;110.33;18.27;;;;;;;-0.42;100.00;99063.91;4993507;28;20285;-65
2021/01/23 02:55:52;;;;;;;103.07;18.90;;;;;;;-0.33;100.00;99060.66;4999556;28;20285;-66
2021/01/23 02:58:20;;;;;;;115.90;19.37;;;;;;;-0.23;100.00;99062.56;4991036;28;20348;-65
2021/01/23 03:00:48;;;;;;;115.47;19.00;;;;;;;-0.13;100.00;99049.00;4993836;28;20319;-65
2021/01/23 03:03:16;;;;;;;130.63;20.77;;;;;;;-0.15;100.00;99054.97;4994469;28;20375;-65
2021/01/23 03:05:43;;;;;;;119.27;19.90;;;;;;;-0.21;100.00;99042.91;4996492;28;20285;-65
2021/01/23 03:08:12;;;;;;;113.20;19.83;;;;;;;-0.21;100.00;99053.19;4991825;28;20288;-65
2021/01/23 03:10:40;;;;;;;120.13;19.87;;;;;;;-0.20;100.00;99052.34;5004320;28;20306;-66
2021/01/23 03:13:06;;;;;;;125.80;20.20;;;;;;;-0.01;100.00;99051.78;5002551;28;20276;-65
2021/01/23 03:15:32;;;;;;;126.60;19.93;;;;;;;0.05;100.00;99052.75;4997031;28;20327;-66
2021/01/23 03:17:59;;;;;;;134.30;19.17;;;;;;;0.04;100.00;99048.44;4987983;28;20289;-65
2021/01/23 03:20:26;;;;;;;130.63;19.00;;;;;;;0.00;100.00;99044.97;4994252;28;20285;-65
2021/01/23 03:22:52;;;;;;;118.73;21.23;;;;;;;-0.03;100.00;99045.75;4987838;28;20301;-65
2021/01/23 03:25:17;;;;;;;121.50;19.80;;;;;;;-0.10;100.00;99043.94;5000634;28;20284;-65
2021/01/23 03:27:43;;;;;;;131.43;20.57;;;;;;;-0.11;100.00;99041.38;4997669;28;20307;-66
2021/01/23 03:30:08;;;;;;;129.80;20.60;;;;;;;-0.09;100.00;99045.69;4993862;28;20045;-65
2021/01/23 03:32:34;;;;;;;104.73;19.07;;;;;;;-0.03;100.00;99045.75;4992840;28;20021;-65
2021/01/23 03:34:59;;;;;;;122.37;20.50;;;;;;;0.01;100.00;99045.84;4992421;28;20379;-65
2021/01/23 03:37:25;;;;;;;117.10;20.73;;;;;;;0.06;100.00;99044.19;5000768;28;20095;-64
2021/01/23 03:39:51;;;;;;;119.57;20.77;;;;;;;-0.02;100.00;99041.50;4999035;28;20034;-66
2021/01/23 03:42:16;;;;;;;124.17;22.40;;;;;;;-0.04;100.00;99045.75;4992863;28;20026;-65
2021/01/23 03:44:42;;;;;;;118.10;21.03;;;;;;;-0.11;100.00;99049.94;5004728;28;20279;-65
2021/01/23 03:47:07;;;;;;;118.43;20.30;;;;;;;-0.12;100.00;99050.78;4998978;28;20030;-65
2021/01/23 03:49:32;;;;;;;125.47;20.50;;;;;;;-0.15;100.00;99047.25;4994829;28;20029;-65
2021/01/23 03:51:58;;;;;;;124.53;21.70;;;;;;;-0.20;100.00;99057.47;4987632;28;20460;-66
2021/01/23 03:54:23;;;;;;;130.27;21.07;;;;;;;-0.25;100.00;99048.81;5002817;28;20041;-65
2021/01/23 03:56:49;;;;;;;128.47;21.67;;;;;;;-0.20;100.00;99054.91;4999647;28;20100;-65
2021/01/23 03:59:14;;;;;;;137.77;22.57;;;;;;;-0.18;100.00;99045.50;4995782;28;20030;-65
2021/01/23 04:01:39;;;;;;;122.10;21.57;;;;;;;-0.18;100.00;99040.38;4987284;28;20120;-64
2021/01/23 04:04:05;;;;;;;116.00;20.13;;;;;;;-0.14;100.00;99037.00;4988159;28;20034;-65
2021/01/23 04:06:30;;;;;;;147.13;23.40;;;;;;;-0.16;100.00;99033.56;4998765;28;20481;-65
2021/01/23 04:08:55;;;;;;;135.53;25.30;;;;;;;-0.19;100.00;99036.09;4992083;28;20101;-65
2021/01/23 04:11:21;;;;;;;154.60;23.83;;;;;;;-0.13;100.00;99028.47;4992862;28;20034;-65
2021/01/23 04:13:46;;;;;;;142.33;23.50;;;;;;;-0.08;100.00;99037.13;5000613;28;20497;-65
2021/01/23 04:16:12;;;;;;;131.53;24.10;;;;;;;-0.02;100.00;99029.50;5002440;28;20092;-65
2021/01/23 04:18:37;;;;;;;146.50;24.27;;;;;;;0.02;100.00;99030.44;4992387;28;20037;-65
2021/01/23 04:21:03;;;;;;;133.80;24.33;;;;;;;0.04;100.00;99030.47;5007070;28;20068;-65
2021/01/23 04:23:28;;;;;;;123.27;23.60;;;;;;;0.03;100.00;99027.03;4998118;28;20117;-65
2021/01/23 04:25:54;;;;;;;136.80;23.80;;;;;;;0.04;100.00;99017.63;4999904;28;20109;-65
2021/01/23 04:28:19;;;;;;;141.47;23.00;;;;;;;0.05;100.00;99021.91;5002094;28;20437;-65
2021/01/23 04:30:45;;;;;;;122.97;24.00;;;;;;;0.05;100.00;99020.22;5004325;28;20030;-65
2021/01/23 04:33:11;;;;;;;129.77;22.63;;;;;;;0.09;100.00;99016.84;4995918;28;20038;-65
2021/01/23 04:35:36;;;;;;;138.63;22.23;;;;;;;0.07;100.00;99025.38;4994278;28;20038;-65
2021/01/23 04:38:02;;;;;;;137.47;25.00;;;;;;;0.05;100.00;99022.78;4995144;28;20372;-66
2021/01/23 04:40:28;;;;;;;125.67;23.03;;;;;;;0.03;100.00;99015.91;4995701;28;20049;-66
2021/01/23 04:42:55;;;;;;;148.03;23.77;;;;;;;-0.01;100.00;99018.38;5003339;28;20029;-65
2021/01/23 04:45:20;;;;;;;136.47;25.17;;;;;;;0.02;100.00;99011.59;5009724;28;20363;-66
2021/01/23 04:47:46;;;;;;;131.20;24.10;;;;;;;0.01;100.00;99009.88;4993802;28;20384;-65
2021/01/23 04:50:12;;;;;;;129.63;23.43;;;;;;;0.06;100.00;99010.81;4994667;28;20057;-65
2021/01/23 04:52:39;;;;;;;150.93;25.60;;;;;;;0.01;100.00;99009.88;4991276;28;20027;-66
2021/01/23 04:55:06;;;;;;;105.67;21.10;;;;;;;0.02;100.00;99012.47;5006553;28;20289;-65
2021/01/23 04:57:32;;;;;;;127.47;25.30;;;;;;;0.03;100.00;98998.78;4995108;28;20350;-66
2021/01/23 04:59:58;;;;;;;123.63;24.30;;;;;;;0.06;100.00;98995.38;5002367;28;20281;-65
2021/01/23 05:02:23;;;;;;;138.10;25.87;;;;;;;0.03;100.00;99003.06;4993656;28;20545;-65
2021/01/23 05:04:57;;;;;;;120.37;24.47;;;;;;;0.02;100.00;98993.63;4999964;28;20494;-65
2021/01/23 05:07:26;;;;;;;122.77;25.27;;;;;;;0.08;100.00;98996.25;4997966;28;20018;-66
2021/01/23 05:09:52;;;;;;;127.40;24.73;;;;;;;0.04;100.00;98995.38;4993642;28;20664;-65
2021/01/23 05:12:45;;;;;;;123.67;24.93;;;;;;;0.03;100.00;98987.63;4999215;28;20292;-66
2021/01/23 05:15:18;;;;;;;137.20;25.17;;;;;;;0.08;100.00;98991.13;4990132;28;20042;-65
2021/01/23 05:17:55;;;;;;;102.00;22.50;;;;;;;0.11;100.00;98991.16;4998043;28;20034;-65
2021/01/23 05:20:34;;;;;;;121.00;24.00;;;;;;;0.16;100.00;98992.13;4995572;28;20285;-66
2021/01/23 05:23:00;;;;;;;133.27;23.00;;;;;;;0.11;100.00;98992.03;4990287;28;20297;-66
2021/01/23 05:25:30;;;;;;;132.57;25.07;;;;;;;0.08;100.00;98996.25;4992935;28;20372;-66
2021/01/23 05:27:56;;;;;;;132.00;25.27;;;;;;;0.06;100.00;98988.53;4990998;28;20800;-66
2021/01/23 05:30:23;;;;;;;119.73;23.83;;;;;;;0.06;100.00;98982.53;5007292;28;20273;-66
2021/01/23 05:33:05;;;;;;;120.90;25.13;;;;;;;0.02;100.00;98978.22;5000737;28;20281;-66
2021/01/23 05:35:31;;;;;;;146.52;23.30;;;;;;;-0.01;100.00;98977.28;4990073;28;20348;-65
2021/01/23 05:37:56;;;;;;;136.43;25.30;;;;;;;-0.06;100.00;98978.06;4992679;28;20505;-65
2021/01/23 05:40:31;;;;;;;137.37;25.50;;;;;;;-0.12;100.00;98963.44;4994050;28;20649;-65
2021/01/23 05:42:57;;;;;;;129.70;25.33;;;;;;;-0.10;100.00;98961.75;4992616;28;20024;-66
2021/01/23 05:45:22;;;;;;;130.30;24.27;;;;;;;-0.06;100.00;98968.66;5007713;28;20899;-65
2021/01/23 05:47:48;;;;;;;128.20;24.40;;;;;;;-0.07;100.00;98963.50;5000792;28;20025;-65
2021/01/23 05:50:13;;;;;;;119.57;21.77;;;;;;;-0.11;100.00;98959.16;5009790;28;20031;-65
2021/01/23 05:52:39;;;;;;;121.53;23.83;;;;;;;-0.12;100.00;98958.31;5001272;28;20053;-65
2021/01/23 05:55:05;;;;;;;110.40;22.20;;;;;;;-0.17;100.00;98962.50;5008458;28;20508;-65
2021/01/23 05:57:32;;;;;;;124.23;23.97;;;;;;;-0.18;100.00;98953.06;4997357;28;20431;-66
2021/01/23 05:59:58;;;;;;;125.73;23.17;;;;;;;-0.17;100.00;98947.06;4999815;28;20277;-65
2021/01/23 06:02:24;;;;;;;113.13;25.07;;;;;;;-0.16;100.00;98951.38;4995909;28;20289;-65
2021/01/23 06:04:52;;;;;;;109.90;22.60;;;;;;;-0.20;100.00;98949.59;4989110;28;20659;-66
2021/01/23 06:07:41;;;;;;;122.70;24.67;;;;;;;-0.16;100.00;98956.50;4998129;28;20031;-65
2021/01/23 06:10:34;;;;;;;110.20;22.30;;;;;;;-0.17;100.00;98951.34;4993261;28;20265;-65
2021/01/23 06:12:59;;;;;;;105.05;20.63;;;;;;;-0.18;100.00;98945.34;4988343;28;20277;-66
2021/01/23 06:15:33;;;;;;;109.80;21.57;;;;;;;-0.24;100.00;98950.41;4993318;28;20507;-66
2021/01/23 06:18:00;;;;;;;116.07;22.37;;;;;;;-0.26;100.00;98946.94;4990257;28;20660;-65
2021/01/23 06:20:41;;;;;;;102.83;22.03;;;;;;;-0.19;100.00;98953.91;4996117;28;20979;-66
2021/01/23 06:23:12;;;;;;;87.87;20.47;;;;;;;-0.15;100.00;98955.66;5000930;28;20293;-65
2021/01/23 06:25:49;;;;;;;99.53;22.07;;;;;;;-0.13;100.00;98951.41;4994285;28;20707;-65
2021/01/23 06:28:15;;;;;;;93.90;21.03;;;;;;;-0.18;100.00;98950.50;5004802;28;20640;-65
2021/01/23 06:30:41;;;;;;;81.63;20.77;;;;;;;-0.18;100.00;98949.63;5005085;28;20339;-65
2021/01/23 06:33:33;;;;;;;98.90;22.97;;;;;;;-0.22;100.00;98955.56;5001280;28;20277;-65
2021/01/23 06:36:10;;;;;;;93.80;22.33;;;;;;;-0.31;100.00;98952.00;5005199;28;20052;-65
2021/01/23 06:38:37;;;;;;;92.87;21.70;;;;;;;-0.33;100.00;98963.09;4993465;28;20289;-65
2021/01/23 06:41:36;;;;;;;95.53;21.73;;;;;;;-0.35;100.00;98954.50;4998241;28;20281;-65
2021/01/23 06:44:08;;;;;;;85.17;20.97;;;;;;;-0.36;100.00;98952.78;5001723;28;20293;-65
2021/01/23 06:46:38;;;;;;;90.97;21.30;;;;;;;-0.38;100.00;98959.56;4992365;28;20274;-65
2021/01/23 06:49:05;;;;;;;75.67;18.90;;;;;;;-0.28;100.00;98960.59;4994287;28;20523;-66
2021/01/23 06:51:31;;;;;;;76.43;19.10;;;;;;;-0.25;100.00;98958.91;4993784;28;20282;-65
2021/01/23 06:54:13;;;;;;;88.77;20.53;;;;;;;-0.21;100.00;98968.44;4996052;28;20316;-64
2021/01/23 06:56:43;;;;;;;89.78;21.42;;;;;;;-0.26;100.00;98969.19;5005341;28;20029;-65
2021/01/23 06:59:20;;;;;;;88.20;21.43;;;;;;;-0.30;100.00;98963.13;5002128;28;20030;-66
2021/01/23 07:01:46;;;;;;;87.50;23.00;;;;;;;-0.33;100.00;98968.22;5005675;28;20798;-66
2021/01/23 07:04:12;;;;;;;68.07;20.17;;;;;;;-0.28;100.00;98970.84;5001652;28;20280;-65
2021/01/23 07:06:37;;;;;;;67.73;18.33;;;;;;;-0.25;100.00;98969.19;5003922;28;20354;-65
2021/01/23 07:09:03;;;;;;;77.83;21.03;;;;;;;-0.25;100.00;98971.75;4996722;28;20038;-65
2021/01/23 07:11:28;;;;;;;75.03;19.60;;;;;;;-0.25;100.00;98965.75;5000207;28;20109;-65
2021/01/23 07:13:59;;;;;;;74.90;22.17;;;;;;;-0.25;100.00;98966.63;4989877;28;20460;-65
2021/01/23 07:16:26;;;;;;;70.73;21.50;;;;;;;-0.22;100.00;98955.56;4988668;28;20058;-65
2021/01/23 07:18:54;;;;;;;73.80;23.80;;;;;;;-0.19;100.00;98966.75;4992171;28;20272;-65
2021/01/23 07:21:20;;;;;;;77.70;22.40;;;;;;;-0.16;100.00;98977.06;5007627;28;20256;-65
2021/01/23 07:23:47;;;;;;;80.63;22.27;;;;;;;-0.15;100.00;98973.66;4994307;28;20321;-65
2021/01/23 07:26:14;;;;;;;79.47;22.57;;;;;;;-0.16;100.00;98966.78;4998600;28;20700;-65
2021/01/23 07:28:44;;;;;;;78.83;22.13;;;;;;;-0.17;100.00;98965.06;4992128;28;20309;-66
2021/01/23 07:31:24;;;;;;;69.50;21.20;;;;;;;-0.12;100.00;98963.44;4992352;28;20296;-65
2021/01/23 07:33:50;;;;;;;78.47;22.47;;;;;;;-0.05;100.00;98965.25;4996801;28;20265;-65
2021/01/23 07:36:32;;;;;;;75.37;23.50;;;;;;;-0.03;100.00;98958.44;5001034;28;20291;-66
2021/01/23 07:38:59;;;;;;;79.47;22.05;;;;;;;0.10;100.00;98958.59;4994818;28;20384;-65
2021/01/23 07:41:29;;;;;;;70.63;21.83;;;;;;;0.26;100.00;98965.72;4989368;28;20081;-66
2021/01/23 07:43:55;;;;;;;73.73;20.60;;;;;;;0.33;100.00;98959.81;4995918;28;20758;-65
2021/01/23 07:46:20;;;;;;;62.07;19.93;;;;;;;0.43;100.00;98951.38;4989414;28;20364;-65
2021/01/23 07:48:46;;;;;;;61.30;21.53;;;;;;;0.46;100.00;98960.84;4993467;28;20368;-65
2021/01/23 07:51:28;;;;;;;65.67;20.93;;;;;;;0.49;100.00;98961.75;5001850;28;20536;-66
2021/01/23 07:54:22;;;;;;;51.42;18.73;;;;;;;0.53;100.00;98960.94;5000992;28;20105;-65
2021/01/23 07:56:53;;;;;;;48.57;17.17;;;;;;;0.58;100.00;98949.00;4987408;28;20033;-65
2021/01/23 07:59:19;;;;;;;45.80;16.87;;;;;;;0.63;100.00;98951.66;5004294;28;20363;-65
2021/01/23 08:01:45;;;;;;;51.80;17.73;;;;;;;0.63;100.00;98945.66;5000283;28;20357;-65
2021/01/23 08:04:33;;;;;;;44.77;15.83;;;;;;;0.68;100.00;98954.28;4995476;28;20554;-65
2021/01/23 08:07:17;;;;;;;41.67;15.00;;;;;;;0.73;100.00;98955.22;5008662;28;20030;-65
2021/01/23 08:09:43;;;;;;;38.10;14.47;;;;;;;0.76;100.00;98957.81;4992188;28;20375;-65
2021/01/23 08:12:19;;;;;;;36.07;13.93;;;;;;;0.82;100.00;98957.88;5002032;28;20296;-65
2021/01/23 08:14:52;;;;;;;34.23;13.40;;;;;;;0.87;100.00;98961.38;4998370;28;20076;-66
2021/01/23 08:17:17;;;;;;;29.83;13.00;;;;;;;0.92;100.00;98961.41;5002752;28;20273;-65
2021/01/23 08:19:51;;;;;;;34.63;12.10;;;;;;;0.93;100.00;98966.59;5016840;28;20272;-65
2021/01/23 08:22:17;;;;;;;28.50;11.47;;;;;;;0.96;100.00;98961.47;5014144;28;20742;-65
2021/01/23 08:24:42;;;;;;;25.83;11.37;;;;;;;0.96;100.00;98961.47;4999948;28;20324;-65
2021/01/23 08:27:18;;;;;;;24.23;10.87;;;;;;;0.96;100.00;98958.03;4992549;28;20034;-65
2021/01/23 08:29:47;;;;;;;23.23;10.43;;;;;;;0.97;100.00;98967.47;5000602;28;20033;-66
2021/01/23 08:32:14;;;;;;;30.47;10.40;;;;;;;0.94;100.00;98958.00;4995136;28;20268;-66
2021/01/23 08:34:40;;;;;;;29.73;10.57;;;;;;;0.94;100.00;98952.00;4998121;28;20342;-65
2021/01/23 08:37:05;;;;;;;23.03;10.03;;;;;;;0.93;100.00;98961.44;5010950;28;20284;-66
2021/01/23 08:39:40;;;;;;;30.03;12.30;;;;;;;0.96;100.00;98956.31;5009290;28;20021;-65
2021/01/23 08:42:06;;;;;;;28.70;9.63;;;;;;;0.98;100.00;98946.06;5000855;28;20030;-65
2021/01/23 08:44:31;;;;;;;29.50;10.63;;;;;;;1.03;100.00;98952.97;5006009;28;20802;-65
2021/01/23 08:46:59;;;;;;;28.27;10.23;;;;;;;1.08;100.00;98945.31;5002141;28;20038;-65
2021/01/23 08:49:24;;;;;;;26.27;9.57;;;;;;;1.18;100.00;98953.13;5000992;28;20514;-65
2021/01/23 08:51:51;;;;;;;27.17;9.20;;;;;;;1.25;100.00;98958.38;4994006;28;20368;-65
2021/01/23 08:54:16;;;;;;;23.17;9.77;;;;;;;1.31;100.00;98953.25;5005146;28;20730;-66
2021/01/23 08:56:41;;;;;;;23.33;9.37;;;;;;;1.32;100.00;98953.28;4997503;28;20274;-65
2021/01/23 08:59:07;;;;;;;23.67;9.33;;;;;;;1.32;100.00;98953.28;5001546;28;20044;-66
2021/01/23 09:01:32;;;;;;;22.07;8.23;;;;;;;1.32;100.00;98955.00;4991426;28;20029;-66
2021/01/23 09:03:58;;;;;;;26.80;8.77;;;;;;;1.36;100.00;98957.63;4997357;28;20062;-65
2021/01/23 09:06:23;;;;;;;22.73;8.67;;;;;;;1.41;100.00;98955.09;5003877;28;20647;-65
2021/01/23 09:08:48;;;;;;;23.73;8.13;;;;;;;1.44;100.00;98950.81;5007201;28;20613;-64
2021/01/23 09:11:14;;;;;;;27.63;8.60;;;;;;;1.51;100.00;98962.06;4995620;28;20037;-65
2021/01/23 09:13:39;;;;;;;22.90;8.07;;;;;;;1.57;100.00;98951.78;4995558;28;20072;-65
2021/01/23 09:16:05;;;;;;;19.60;7.20;;;;;;;1.65;100.00;98950.16;5007895;28;20104;-65
2021/01/23 09:18:32;;;;;;;22.63;7.80;;;;;;;1.80;100.00;98948.56;5008880;28;20045;-65
2021/01/23 09:20:58;;;;;;;18.23;7.63;;;;;;;1.91;100.00;98952.09;4999219;28;20076;-65
2021/01/23 09:23:24;;;;;;;20.40;6.80;;;;;;;2.00;100.00;98947.00;4998043;28;20353;-66
2021/01/23 09:25:49;;;;;;;16.83;6.87;;;;;;;2.05;100.00;98955.63;4992760;28;20356;-66
2021/01/23 09:28:14;;;;;;;16.50;6.67;;;;;;;2.16;100.00;98953.97;4991249;28;20030;-65
2021/01/23 09:30:40;;;;;;;16.53;6.30;;;;;;;2.24;100.00;98966.94;4993235;28;20134;-65
2021/01/23 09:33:05;;;;;;;17.13;6.40;;;;;;;2.26;100.00;98958.34;5008079;28;20045;-64
2021/01/23 09:35:31;;;;;;;20.20;7.53;;;;;;;2.25;100.00;98964.34;5003696;28;20026;-65
2021/01/23 09:37:56;;;;;;;19.50;7.67;;;;;;;2.31;100.00;98960.97;5008690;28;20396;-65
2021/01/23 09:40:21;;;;;;;19.70;7.73;;;;;;;2.29;100.00;98960.94;4999393;28;20037;-66
2021/01/23 09:42:47;;;;;;;21.03;7.27;;;;;;;2.31;100.00;98948.94;4993906;28;20109;-67
2021/01/23 09:45:12;;;;;;;15.50;7.03;;;;;;;2.33;100.00;98949.81;4991275;28;20485;-66
2021/01/23 09:47:38;;;;;;;19.60;6.80;;;;;;;2.34;100.00;98956.69;5005320;28;20034;-67
2021/01/23 09:50:05;;;;;;;20.80;6.47;;;;;;;2.33;100.00;98957.53;4995200;28;20108;-67
2021/01/23 09:52:30;;;;;;;17.60;7.10;;;;;;;2.38;100.00;98951.53;4990881;28;20105;-65
2021/01/23 09:54:55;;;;;;;17.80;6.67;;;;;;;2.43;100.00;98957.59;4991547;28;20364;-67
2021/01/23 09:57:21;;;;;;;18.97;7.30;;;;;;;2.45;100.00;98961.06;4993135;28;20018;-66
2021/01/23 09:59:46;;;;;;;18.23;6.50;;;;;;;2.50;100.00;98949.88;4998710;28;20038;-66
2021/01/23 10:02:12;;;;;;;19.23;7.23;;;;;;;2.56;100.00;98946.50;4996016;28;20452;-67
2021/01/23 10:04:37;;;;;;;19.23;8.13;;;;;;;2.64;100.00;98947.38;4996957;28;20120;-66
2021/01/23 10:07:03;;;;;;;21.17;7.27;;;;;;;2.71;100.00;98949.13;5005414;28;20021;-66
2021/01/23 10:09:29;;;;;;;21.67;8.47;;;;;;;2.71;100.00;98949.13;4994966;28;20034;-66
2021/01/23 10:11:55;;;;;;;20.80;9.17;;;;;;;2.75;100.00;98950.00;4997757;28;20026;-67
2021/01/23 10:14:23;;;;;;;20.00;8.07;;;;;;;2.79;100.00;98952.63;4993063;28;20116;-66
2021/01/23 10:16:50;;;;;;;22.37;9.40;;;;;;;2.77;100.00;98944.00;4991765;28;20771;-66
2021/01/23 10:19:15;;;;;;;22.10;10.03;;;;;;;2.83;100.00;98943.16;5005165;28;20293;-66
2021/01/23 10:21:41;;;;;;;26.57;8.77;;;;;;;2.88;100.00;98952.63;5004049;28;20356;-65
2021/01/23 10:24:10;;;;;;;21.10;9.00;;;;;;;2.99;100.00;98941.50;5002465;28;20104;-66
2021/01/23 10:26:35;;;;;;;17.50;7.60;;;;;;;3.01;100.00;98944.94;5004418;28;20640;-66
2021/01/23 10:29:03;;;;;;;16.33;6.30;;;;;;;3.11;100.00;98936.38;5002891;28;20265;-66
2021/01/23 10:31:28;;;;;;;15.80;6.57;;;;;;;3.16;100.00;98939.84;5007154;28;20029;-65
2021/01/23 10:33:54;;;;;;;19.67;8.63;;;;;;;3.19;100.00;98947.59;4991594;28;20792;-66
2021/01/23 10:36:20;;;;;;;20.90;7.77;;;;;;;3.26;100.00;98940.69;4996620;28;20116;-66
2021/01/23 10:38:46;;;;;;;18.27;7.13;;;;;;;3.34;100.00;98955.38;4991254;28;20026;-67
2021/01/23 10:41:12;;;;;;;18.73;7.50;;;;;;;3.41;100.00;98948.50;4998503;28;20029;-67
2021/01/23 10:43:37;;;;;;;23.47;8.87;;;;;;;3.43;100.00;98949.38;5000308;28;20288;-66
2021/01/23 10:46:03;;;;;;;17.20;6.50;;;;;;;3.51;100.00;98956.28;4996339;28;20549;-67
2021/01/23 10:48:29;;;;;;;17.77;6.70;;;;;;;3.43;100.00;98947.63;4999385;28;20029;-67
2021/01/23 10:50:55;;;;;;;16.03;6.20;;;;;;;3.46;100.00;98947.63;5006482;28;20079;-67
2021/01/23 10:53:20;;;;;;;20.00;6.30;;;;;;;3.44;100.00;98936.44;4994558;28;21190;-67
2021/01/23 10:55:46;;;;;;;15.07;6.07;;;;;;;3.36;100.00;98935.56;4989061;28;20034;-66
2021/01/23 10:58:11;;;;;;;14.13;6.07;;;;;;;3.31;100.00;98937.28;5000092;28;20022;-66
2021/01/23 11:00:37;;;;;;;13.60;5.40;;;;;;;3.33;100.00;98940.72;4992938;28;20029;-67
2021/01/23 11:03:03;;;;;;;14.83;5.43;;;;;;;3.35;100.00;98939.00;5000744;28;20121;-67
2021/01/23 11:05:28;;;;;;;14.57;5.80;;;;;;;3.51;100.00;98935.59;4995548;28;20061;-68
2021/01/23 11:07:54;;;;;;;14.73;7.00;;;;;;;3.62;100.00;98929.56;4999700;28;20450;-67
2021/01/23 11:10:20;;;;;;;14.50;5.30;;;;;;;3.69;100.00;98931.28;4996799;28;20034;-66
2021/01/23 11:12:45;;;;;;;12.47;5.30;;;;;;;3.87;100.00;98927.84;4995942;28;20493;-66
2021/01/23 11:15:11;;;;;;;14.27;6.03;;;;;;;3.88;100.00;98925.28;4989129;28;20137;-66
2021/01/23 11:17:38;;;;;;;12.43;5.07;;;;;;;3.95;100.00;98916.63;4990397;28;20030;-66